createdAt,value
2023-01-20T00:00:04.154Z,100.00
2023-01-20T00:02:33.124Z,100.00
2023-01-20T00:05:00.630Z,100.00
2023-01-20T00:07:28.176Z,100.00
2023-01-20T00:09:55.976Z,100.00
2023-01-20T00:12:23.503Z,100.00
2023-01-20T00:14:50.991Z,100.00
2023-01-20T00:17:18.491Z,100.00
2023-01-20T00:19:47.339Z,100.00
2023-01-20T00:22:14.891Z,100.00
2023-01-20T00:24:42.387Z,100.00
2023-01-20T00:27:10.086Z,100.00
2023-01-20T00:29:37.578Z,100.00
2023-01-20T00:32:05.249Z,100.00
2023-01-20T00:34:32.741Z,100.00
2023-01-20T00:37:01.609Z,100.00
2023-01-20T00:39:29.101Z,100.00
2023-01-20T00:41:56.614Z,100.00
2023-01-20T00:44:24.169Z,100.00
2023-01-20T00:46:51.657Z,100.00
2023-01-20T00:49:19.153Z,100.00
2023-01-20T00:51:46.595Z,100.00
2023-01-20T00:54:15.489Z,100.00
2023-01-20T00:56:42.946Z,100.00
2023-01-20T00:59:10.551Z,100.00
2023-01-20T01:01:38.042Z,100.00
2023-01-20T01:04:05.960Z,100.00
2023-01-20T01:06:33.515Z,100.00
2023-01-20T01:09:01.046Z,100.00
2023-01-20T01:11:29.963Z,100.00
2023-01-20T01:13:57.913Z,100.00
2023-01-20T01:16:25.512Z,100.00
2023-01-20T01:18:53.993Z,100.00
2023-01-20T01:21:21.551Z,100.00
2023-01-20T01:23:49.154Z,100.00
2023-01-20T01:26:16.688Z,100.00
2023-01-20T01:28:47.133Z,100.00
2023-01-20T01:31:14.620Z,100.00
2023-01-20T01:33:42.130Z,100.00
2023-01-20T01:36:12.115Z,100.00
2023-01-20T01:38:39.587Z,100.00
2023-01-20T01:41:07.323Z,100.00
2023-01-20T01:43:35.657Z,100.00
2023-01-20T01:46:04.881Z,100.00
2023-01-20T01:48:32.868Z,100.00
2023-01-20T01:51:01.971Z,100.00
2023-01-20T01:53:29.939Z,100.00
2023-01-20T01:55:57.704Z,100.00
2023-01-20T01:58:26.013Z,100.00
2023-01-20T02:00:53.607Z,100.00
2023-01-20T02:03:22.517Z,100.00
2023-01-20T02:05:50.113Z,100.00
2023-01-20T02:08:17.698Z,100.00
2023-01-20T02:10:45.185Z,100.00
2023-01-20T02:13:12.717Z,100.00
2023-01-20T02:15:41.100Z,100.00
2023-01-20T02:18:18.266Z,100.00
2023-01-20T02:20:57.413Z,100.00
2023-01-20T02:23:29.147Z,100.00
2023-01-20T02:26:07.125Z,100.00
2023-01-20T02:29:07.736Z,100.00
2023-01-20T02:31:52.929Z,100.00
2023-01-20T02:34:23.826Z,100.00
2023-01-20T02:36:51.893Z,100.00
2023-01-20T02:39:27.696Z,100.00
2023-01-20T02:41:57.396Z,100.00
2023-01-20T02:44:26.891Z,100.00
2023-01-20T02:46:54.958Z,100.00
2023-01-20T02:49:24.942Z,100.00
2023-01-20T02:51:52.621Z,100.00
2023-01-20T02:54:20.158Z,100.00
2023-01-20T02:56:47.650Z,100.00
2023-01-20T02:59:15.901Z,100.00
2023-01-20T03:01:44.272Z,100.00
2023-01-20T03:04:11.954Z,100.00
2023-01-20T03:06:42.035Z,100.00
2023-01-20T03:09:10.378Z,100.00
2023-01-20T03:11:38.937Z,100.00
2023-01-20T03:14:07.495Z,100.00
2023-01-20T03:16:35.038Z,100.00
2023-01-20T03:19:02.565Z,100.00
2023-01-20T03:21:30.053Z,100.00
2023-01-20T03:24:04.585Z,100.00
2023-01-20T03:26:32.163Z,100.00
2023-01-20T03:28:59.929Z,100.00
2023-01-20T03:31:28.725Z,100.00
2023-01-20T03:33:56.893Z,100.00
2023-01-20T03:36:24.905Z,100.00
2023-01-20T03:38:52.427Z,100.00
2023-01-20T03:41:24.083Z,100.00
2023-01-20T03:43:53.459Z,100.00
2023-01-20T03:46:21.837Z,100.00
2023-01-20T03:48:50.543Z,100.00
2023-01-20T03:51:19.705Z,100.00
2023-01-20T03:53:48.063Z,100.00
2023-01-20T03:56:15.904Z,100.00
2023-01-20T03:58:45.412Z,100.00
2023-01-20T04:01:18.773Z,100.00
2023-01-20T04:03:47.132Z,100.00
2023-01-20T04:06:14.840Z,100.00
2023-01-20T04:08:42.749Z,100.00
2023-01-20T04:11:10.206Z,100.00
2023-01-20T04:13:37.746Z,100.00
2023-01-20T04:16:10.479Z,100.00
2023-01-20T04:18:38.254Z,100.00
2023-01-20T04:21:05.864Z,100.00
2023-01-20T04:23:33.731Z,100.00
2023-01-20T04:26:01.255Z,100.00
2023-01-20T04:28:29.651Z,100.00
2023-01-20T04:30:57.248Z,100.00
2023-01-20T04:33:26.277Z,100.00
2023-01-20T04:35:53.813Z,100.00
2023-01-20T04:38:21.381Z,100.00
2023-01-20T04:40:48.903Z,100.00
2023-01-20T04:43:16.826Z,100.00
2023-01-20T04:45:44.338Z,100.00
2023-01-20T04:48:11.858Z,100.00
2023-01-20T04:50:41.121Z,100.00
2023-01-20T04:53:08.690Z,100.00
2023-01-20T04:55:36.231Z,100.00
2023-01-20T04:58:03.804Z,100.00
2023-01-20T05:00:31.376Z,100.00
2023-01-20T05:02:59.132Z,100.00
2023-01-20T05:05:26.632Z,100.00
2023-01-20T05:07:55.606Z,100.00
2023-01-20T05:10:23.090Z,100.00
2023-01-20T05:12:50.620Z,100.00
2023-01-20T05:15:18.190Z,100.00
2023-01-20T05:17:45.694Z,100.00
2023-01-20T05:20:14.243Z,100.00
2023-01-20T05:22:41.724Z,100.00
2023-01-20T05:25:10.809Z,100.00
2023-01-20T05:27:38.304Z,100.00
2023-01-20T05:30:06.153Z,100.00
2023-01-20T05:32:33.699Z,100.00
2023-01-20T05:35:01.175Z,100.00
2023-01-20T05:37:28.954Z,100.00
2023-01-20T05:39:56.620Z,100.00
2023-01-20T05:42:25.472Z,100.00
2023-01-20T05:44:53.006Z,100.00
2023-01-20T05:47:20.463Z,100.00
2023-01-20T05:49:47.945Z,100.00
2023-01-20T05:52:15.510Z,100.00
2023-01-20T05:54:43.488Z,100.00
2023-01-20T05:57:11.010Z,100.00
2023-01-20T05:59:39.974Z,100.00
2023-01-20T06:02:07.478Z,100.00
2023-01-20T06:04:35.105Z,100.00
2023-01-20T06:07:02.610Z,100.00
2023-01-20T06:09:30.151Z,100.00
2023-01-20T06:11:57.691Z,100.00
2023-01-20T06:14:25.341Z,100.00
2023-01-20T06:16:54.156Z,100.00
2023-01-20T06:19:21.929Z,100.00
2023-01-20T06:21:49.362Z,100.00
2023-01-20T06:24:16.892Z,100.00
2023-01-20T06:26:44.342Z,100.00
2023-01-20T06:29:11.857Z,100.00
2023-01-20T06:31:39.477Z,100.00
2023-01-20T06:34:08.352Z,100.00
2023-01-20T06:36:35.855Z,100.00
2023-01-20T06:39:03.552Z,100.00
2023-01-20T06:41:31.008Z,100.00
2023-01-20T06:43:58.560Z,100.00
2023-01-20T06:46:26.072Z,100.00
2023-01-20T06:49:00.160Z,100.00
2023-01-20T06:51:29.501Z,100.00
2023-01-20T06:53:57.045Z,100.00
2023-01-20T06:56:24.936Z,100.00
2023-01-20T06:58:52.547Z,100.00
2023-01-20T07:01:21.809Z,100.00
2023-01-20T07:03:49.578Z,100.00
2023-01-20T07:06:17.782Z,100.00
2023-01-20T07:08:46.935Z,100.00
2023-01-20T07:11:14.541Z,100.00
2023-01-20T07:13:42.072Z,100.00
2023-01-20T07:16:11.983Z,100.00
2023-01-20T07:18:40.607Z,100.00
2023-01-20T07:21:08.214Z,100.00
2023-01-20T07:23:35.747Z,100.00
2023-01-20T07:26:05.143Z,100.00
2023-01-20T07:28:32.986Z,100.00
2023-01-20T07:31:03.803Z,100.00
2023-01-20T07:33:31.333Z,100.00
2023-01-20T07:35:58.837Z,100.00
2023-01-20T07:38:26.375Z,100.00
2023-01-20T07:40:53.888Z,100.00
2023-01-20T07:43:22.729Z,100.00
2023-01-20T07:45:50.303Z,100.00
2023-01-20T07:48:17.904Z,100.00
2023-01-20T07:50:45.422Z,100.00
2023-01-20T07:53:12.967Z,100.00
2023-01-20T07:55:40.453Z,100.00
2023-01-20T07:58:07.923Z,100.00
2023-01-20T08:00:36.818Z,100.00
2023-01-20T08:03:04.398Z,100.00
2023-01-20T08:05:32.913Z,100.00
2023-01-20T08:08:00.471Z,100.00
2023-01-20T08:10:28.883Z,100.00
2023-01-20T08:12:56.575Z,100.00
2023-01-20T08:15:24.060Z,100.00
2023-01-20T08:17:55.463Z,100.00
2023-01-20T08:20:23.083Z,100.00
2023-01-20T08:22:50.673Z,100.00
2023-01-20T08:25:18.193Z,100.00
2023-01-20T08:27:45.749Z,100.00
2023-01-20T08:30:13.543Z,100.00
2023-01-20T08:32:41.099Z,100.00
2023-01-20T08:35:10.278Z,100.00
2023-01-20T08:37:37.809Z,100.00
2023-01-20T08:40:06.559Z,100.00
2023-01-20T08:42:34.021Z,100.00
2023-01-20T08:45:01.679Z,100.00
2023-01-20T08:47:29.162Z,100.00
2023-01-20T08:49:56.689Z,100.00
2023-01-20T08:52:25.603Z,100.00
2023-01-20T08:54:53.860Z,100.00
2023-01-20T08:57:21.399Z,100.00
2023-01-20T08:59:50.800Z,100.00
2023-01-20T09:02:18.386Z,100.00
2023-01-20T09:04:46.216Z,100.00
2023-01-20T09:07:13.740Z,100.00
2023-01-20T09:09:42.589Z,100.00
2023-01-20T09:12:10.088Z,100.00
2023-01-20T09:14:37.588Z,100.00
2023-01-20T09:17:05.086Z,100.00
2023-01-20T09:19:32.533Z,100.00
2023-01-20T09:22:00.087Z,100.00
2023-01-20T09:24:27.654Z,100.00
2023-01-20T09:26:57.181Z,100.00
2023-01-20T09:29:24.768Z,100.00
2023-01-20T09:31:52.913Z,100.00
2023-01-20T09:34:23.132Z,100.00
2023-01-20T09:36:50.986Z,100.00
2023-01-20T09:39:36.422Z,100.00
2023-01-20T09:42:24.460Z,100.00
2023-01-20T09:44:53.909Z,100.00
2023-01-20T09:47:28.634Z,100.00
2023-01-20T09:50:21.515Z,100.00
2023-01-20T09:53:04.672Z,100.00
2023-01-20T09:55:33.712Z,100.00
2023-01-20T09:58:06.607Z,100.00
2023-01-20T10:00:34.179Z,99.25
2023-01-20T10:03:02.313Z,100.00
2023-01-20T10:05:32.855Z,99.42
2023-01-20T10:08:02.258Z,95.41
2023-01-20T10:10:30.399Z,100.00
2023-01-20T10:12:58.082Z,100.00
2023-01-20T10:15:28.277Z,100.00
2023-01-20T10:17:58.464Z,98.12
2023-01-20T10:20:28.716Z,99.43
2023-01-20T10:22:57.278Z,100.00
2023-01-20T10:25:26.026Z,98.52
2023-01-20T10:27:54.380Z,99.63
2023-01-20T10:30:22.766Z,97.97
2023-01-20T10:32:53.454Z,94.48
2023-01-20T10:35:21.551Z,98.62
2023-01-20T10:37:49.083Z,100.00
2023-01-20T10:40:18.698Z,100.00
2023-01-20T10:42:47.543Z,100.00
2023-01-20T10:45:15.797Z,100.00
2023-01-20T10:47:45.211Z,100.00
2023-01-20T10:50:18.122Z,99.78
2023-01-20T10:52:47.848Z,100.00
2023-01-20T10:55:19.452Z,96.99
2023-01-20T10:57:48.691Z,96.19
2023-01-20T11:00:18.741Z,95.76
2023-01-20T11:02:49.249Z,99.97
2023-01-20T11:05:19.273Z,100.00
2023-01-20T11:07:47.033Z,100.00
2023-01-20T11:10:15.235Z,100.00
2023-01-20T11:12:43.221Z,100.00
2023-01-20T11:15:15.789Z,100.00
2023-01-20T11:17:43.262Z,100.00
2023-01-20T11:20:15.255Z,100.00
2023-01-20T11:22:46.022Z,100.00
2023-01-20T11:25:22.214Z,100.00
2023-01-20T11:27:49.733Z,100.00
2023-01-20T11:30:22.135Z,99.26
2023-01-20T11:32:50.515Z,98.29
2023-01-20T11:35:21.728Z,97.07
2023-01-20T11:37:50.566Z,100.00
2023-01-20T11:40:22.050Z,100.00
2023-01-20T11:42:49.963Z,100.00
2023-01-20T11:45:28.076Z,100.00
2023-01-20T11:48:02.976Z,100.00
2023-01-20T11:50:31.757Z,100.00
2023-01-20T11:53:13.696Z,100.00
2023-01-20T11:55:48.420Z,100.00
2023-01-20T11:58:17.530Z,100.00
2023-01-20T12:00:45.127Z,100.00
2023-01-20T12:03:19.327Z,100.00
2023-01-20T12:05:48.369Z,100.00
2023-01-20T12:08:17.880Z,98.70
2023-01-20T12:10:45.366Z,99.93
2023-01-20T12:13:14.095Z,97.40
2023-01-20T12:15:41.917Z,94.13
2023-01-20T12:18:12.045Z,92.80
2023-01-20T12:20:54.083Z,95.21
2023-01-20T12:23:24.902Z,100.00
2023-01-20T12:25:54.166Z,96.14
2023-01-20T12:28:23.033Z,98.10
2023-01-20T12:30:52.549Z,96.68
2023-01-20T12:33:24.563Z,95.92
2023-01-20T12:36:25.641Z,93.25
2023-01-20T12:39:06.144Z,95.11
2023-01-20T12:41:36.887Z,94.63
2023-01-20T12:44:06.035Z,93.82
2023-01-20T12:46:35.326Z,96.02
2023-01-20T12:49:07.268Z,95.88
2023-01-20T12:51:37.614Z,96.21
2023-01-20T12:54:11.702Z,100.00
2023-01-20T12:56:41.386Z,100.00
2023-01-20T12:59:10.025Z,100.00
2023-01-20T13:01:42.736Z,99.38
2023-01-20T13:04:21.181Z,96.37
2023-01-20T13:06:55.631Z,94.41
2023-01-20T13:09:30.924Z,97.34
2023-01-20T13:12:01.744Z,94.40
2023-01-20T13:14:31.539Z,99.98
2023-01-20T13:17:00.007Z,100.00
2023-01-20T13:19:29.496Z,97.21
2023-01-20T13:22:07.675Z,96.03
2023-01-20T13:24:37.144Z,95.45
2023-01-20T13:27:04.660Z,92.91
2023-01-20T13:29:46.553Z,88.21
2023-01-20T13:32:30.165Z,90.52
2023-01-20T13:34:57.851Z,93.20
2023-01-20T13:37:26.536Z,96.46
2023-01-20T13:39:55.974Z,92.38
2023-01-20T13:42:44.417Z,91.63
2023-01-20T13:45:32.805Z,97.06
2023-01-20T13:48:01.345Z,93.54
2023-01-20T13:50:30.152Z,91.94
2023-01-20T13:53:12.874Z,89.57
2023-01-20T13:55:58.110Z,92.87
2023-01-20T13:58:27.988Z,90.35
2023-01-20T14:00:56.049Z,89.31
2023-01-20T14:03:24.440Z,88.49
2023-01-20T14:05:52.174Z,88.68
2023-01-20T14:08:19.991Z,90.60
2023-01-20T14:10:47.610Z,87.16
2023-01-20T14:13:19.215Z,88.30
2023-01-20T14:15:49.359Z,86.82
2023-01-20T14:18:18.755Z,83.43
2023-01-20T14:20:56.921Z,83.72
2023-01-20T14:23:28.768Z,83.00
2023-01-20T14:26:00.307Z,81.61
2023-01-20T14:28:27.842Z,81.83
2023-01-20T14:31:28.822Z,84.35
2023-01-20T14:33:58.929Z,84.16
2023-01-20T14:36:26.934Z,88.83
2023-01-20T14:38:58.180Z,87.01
2023-01-20T14:41:31.359Z,85.96
2023-01-20T14:43:59.083Z,82.07
2023-01-20T14:46:26.818Z,82.41
2023-01-20T14:48:54.323Z,83.04
2023-01-20T14:51:23.206Z,89.45
2023-01-20T14:54:05.603Z,86.41
2023-01-20T14:56:33.051Z,84.21
2023-01-20T14:59:00.530Z,85.08
2023-01-20T15:01:28.108Z,82.86
2023-01-20T15:03:56.369Z,82.54
2023-01-20T15:06:25.306Z,80.72
2023-01-20T15:09:05.703Z,81.66
2023-01-20T15:11:35.535Z,84.87
2023-01-20T15:14:08.485Z,82.87
2023-01-20T15:16:44.786Z,80.61
2023-01-20T15:19:33.452Z,84.35
2023-01-20T15:22:21.865Z,88.05
2023-01-20T15:24:49.547Z,85.05
2023-01-20T15:27:38.149Z,86.38
2023-01-20T15:30:16.161Z,82.88
2023-01-20T15:32:43.828Z,85.03
2023-01-20T15:35:15.079Z,79.96
2023-01-20T15:37:44.248Z,79.57
2023-01-20T15:40:16.051Z,81.04
2023-01-20T15:42:43.791Z,83.37
2023-01-20T15:45:13.710Z,81.20
2023-01-20T15:47:41.194Z,80.96
2023-01-20T15:50:13.662Z,79.50
2023-01-20T15:52:41.300Z,77.76
2023-01-20T15:55:12.189Z,78.37
2023-01-20T15:57:39.732Z,77.01
2023-01-20T16:00:07.828Z,77.07
2023-01-20T16:02:35.340Z,74.94
2023-01-20T16:05:03.490Z,75.37
2023-01-20T16:07:30.985Z,78.46
2023-01-20T16:09:58.510Z,78.48
2023-01-20T16:12:27.839Z,76.97
2023-01-20T16:14:55.344Z,77.24
2023-01-20T16:17:23.132Z,75.87
2023-01-20T16:19:50.735Z,76.30
2023-01-20T16:22:18.244Z,78.83
2023-01-20T16:24:45.792Z,79.50
2023-01-20T16:27:15.697Z,79.67
2023-01-20T16:29:44.518Z,79.75
2023-01-20T16:32:12.096Z,79.89
2023-01-20T16:34:39.595Z,83.58
2023-01-20T16:37:07.238Z,83.57
2023-01-20T16:39:34.910Z,79.95
2023-01-20T16:42:02.406Z,80.78
2023-01-20T16:44:29.905Z,80.06
2023-01-20T16:47:00.204Z,78.80
2023-01-20T16:49:27.956Z,81.56
2023-01-20T16:51:55.445Z,79.57
2023-01-20T16:54:22.940Z,79.51
2023-01-20T16:56:50.442Z,80.32
2023-01-20T16:59:18.339Z,82.84
2023-01-20T17:01:48.024Z,80.64
2023-01-20T17:04:16.930Z,80.35
2023-01-20T17:06:44.455Z,79.28
2023-01-20T17:09:12.133Z,77.15
2023-01-20T17:11:40.256Z,79.39
2023-01-20T17:14:08.577Z,77.78
2023-01-20T17:16:37.090Z,77.32
2023-01-20T17:19:04.907Z,80.02
2023-01-20T17:21:34.514Z,85.68
2023-01-20T17:24:02.929Z,84.59
2023-01-20T17:26:30.667Z,84.96
2023-01-20T17:28:58.825Z,83.26
2023-01-20T17:31:26.411Z,85.32
2023-01-20T17:33:53.979Z,87.77
2023-01-20T17:36:22.051Z,88.08
2023-01-20T17:38:50.933Z,90.42
2023-01-20T17:41:18.485Z,85.74
2023-01-20T17:43:46.660Z,83.81
2023-01-20T17:46:15.005Z,83.77
2023-01-20T17:48:42.553Z,87.03
2023-01-20T17:51:10.534Z,84.40
2023-01-20T17:53:38.115Z,83.71
2023-01-20T17:56:12.806Z,84.40
2023-01-20T17:58:40.888Z,82.82
2023-01-20T18:01:12.004Z,85.08
2023-01-20T18:03:41.957Z,83.70
2023-01-20T18:06:10.757Z,84.95
2023-01-20T18:08:39.167Z,85.15
2023-01-20T18:11:09.382Z,80.91
2023-01-20T18:13:37.035Z,79.44
2023-01-20T18:16:05.315Z,76.16
2023-01-20T18:18:32.985Z,76.87
2023-01-20T18:21:08.241Z,78.88
2023-01-20T18:23:38.195Z,78.72
2023-01-20T18:26:08.885Z,78.47
2023-01-20T18:28:36.715Z,78.25
2023-01-20T18:31:08.469Z,79.81
2023-01-20T18:33:38.281Z,78.59
2023-01-20T18:36:05.931Z,79.42
2023-01-20T18:38:33.450Z,79.99
2023-01-20T18:41:01.442Z,81.51
2023-01-20T18:43:30.369Z,80.50
2023-01-20T18:45:57.955Z,78.20
2023-01-20T18:48:25.499Z,77.27
2023-01-20T18:50:53.529Z,77.11
2023-01-20T18:53:21.068Z,76.93
2023-01-20T18:55:48.638Z,76.96
2023-01-20T18:58:17.441Z,78.33
2023-01-20T19:00:46.269Z,78.78
2023-01-20T19:03:13.796Z,80.35
2023-01-20T19:05:41.391Z,80.08
2023-01-20T19:08:08.881Z,83.54
2023-01-20T19:10:36.362Z,81.54
2023-01-20T19:13:03.893Z,83.88
2023-01-20T19:15:33.628Z,84.42
2023-01-20T19:18:02.611Z,84.69
2023-01-20T19:20:30.247Z,90.13
2023-01-20T19:22:57.778Z,89.11
2023-01-20T19:25:29.517Z,97.17
2023-01-20T19:27:57.058Z,100.00
2023-01-20T19:30:24.550Z,100.00
2023-01-20T19:32:52.054Z,100.00
2023-01-20T19:35:21.834Z,100.00
2023-01-20T19:37:49.394Z,100.00
2023-01-20T19:40:17.468Z,100.00
2023-01-20T19:42:48.245Z,100.00
2023-01-20T19:45:16.231Z,100.00
2023-01-20T19:47:43.726Z,100.00
2023-01-20T19:50:11.771Z,100.00
2023-01-20T19:52:40.573Z,100.00
2023-01-20T19:55:08.115Z,100.00
2023-01-20T19:57:35.566Z,100.00
2023-01-20T20:00:03.597Z,100.00
2023-01-20T20:02:31.107Z,100.00
2023-01-20T20:04:58.570Z,100.00
2023-01-20T20:07:26.053Z,100.00
2023-01-20T20:09:54.942Z,100.00
2023-01-20T20:12:22.429Z,100.00
2023-01-20T20:14:49.885Z,100.00
2023-01-20T20:17:17.377Z,100.00
2023-01-20T20:19:44.830Z,100.00
2023-01-20T20:22:12.323Z,100.00
2023-01-20T20:24:39.838Z,100.00
2023-01-20T20:27:08.704Z,100.00
2023-01-20T20:29:36.279Z,100.00
2023-01-20T20:32:03.779Z,100.00
2023-01-20T20:34:31.333Z,100.00
2023-01-20T20:36:58.874Z,100.00
2023-01-20T20:39:26.466Z,100.00
2023-01-20T20:41:55.347Z,100.00
2023-01-20T20:44:24.177Z,100.00
2023-01-20T20:46:51.803Z,100.00
2023-01-20T20:49:19.456Z,100.00
2023-01-20T20:51:46.949Z,100.00
2023-01-20T20:54:16.845Z,100.00
2023-01-20T20:56:44.378Z,100.00
2023-01-20T20:59:11.928Z,100.00
2023-01-20T21:01:40.936Z,100.00
2023-01-20T21:04:08.666Z,100.00
2023-01-20T21:06:36.196Z,100.00
2023-01-20T21:09:03.706Z,100.00
2023-01-20T21:11:31.241Z,100.00
2023-01-20T21:13:59.067Z,100.00
2023-01-20T21:16:27.520Z,100.00
2023-01-20T21:18:57.137Z,100.00
2023-01-20T21:21:25.086Z,100.00
2023-01-20T21:23:53.203Z,100.00
2023-01-20T21:26:21.385Z,100.00
2023-01-20T21:28:50.055Z,100.00
2023-01-20T21:31:19.059Z,100.00
2023-01-20T21:33:46.845Z,100.00
2023-01-20T21:36:15.669Z,100.00
2023-01-20T21:38:45.427Z,100.00
2023-01-20T21:41:13.669Z,100.00
2023-01-20T21:43:59.204Z,100.00
2023-01-20T21:46:28.041Z,100.00
2023-01-20T21:49:12.999Z,100.00
2023-01-20T21:52:00.595Z,100.00
2023-01-20T21:54:28.491Z,100.00
2023-01-20T21:56:55.987Z,100.00
2023-01-20T21:59:23.451Z,100.00
2023-01-20T22:01:51.035Z,100.00
2023-01-20T22:04:18.710Z,100.00
2023-01-20T22:06:47.542Z,100.00
2023-01-20T22:09:15.097Z,100.00
2023-01-20T22:11:42.612Z,100.00
2023-01-20T22:14:10.189Z,100.00
2023-01-20T22:16:37.749Z,100.00
2023-01-20T22:19:05.429Z,100.00
2023-01-20T22:21:33.259Z,100.00
2023-01-20T22:24:02.484Z,100.00
2023-01-20T22:26:29.962Z,100.00
2023-01-20T22:28:57.502Z,100.00
2023-01-20T22:31:25.040Z,100.00
2023-01-20T22:33:52.815Z,100.00
2023-01-20T22:36:20.390Z,100.00
2023-01-20T22:38:47.940Z,100.00
2023-01-20T22:41:16.801Z,100.00
2023-01-20T22:43:44.903Z,100.00
2023-01-20T22:46:13.605Z,100.00
2023-01-20T22:48:41.171Z,100.00
2023-01-20T22:51:09.274Z,100.00
2023-01-20T22:53:36.850Z,100.00
2023-01-20T22:56:05.016Z,100.00
2023-01-20T22:58:34.085Z,100.00
2023-01-20T23:01:01.829Z,100.00
2023-01-20T23:03:29.407Z,100.00
2023-01-20T23:05:57.781Z,100.00
2023-01-20T23:08:25.461Z,100.00
2023-01-20T23:10:55.019Z,100.00
2023-01-20T23:13:22.630Z,100.00
2023-01-20T23:15:52.174Z,100.00
2023-01-20T23:18:19.862Z,100.00
2023-01-20T23:20:48.466Z,100.00
2023-01-20T23:23:16.241Z,100.00
2023-01-20T23:25:43.742Z,100.00
2023-01-20T23:28:11.251Z,100.00
2023-01-20T23:30:38.974Z,100.00
2023-01-20T23:33:07.889Z,100.00
2023-01-20T23:35:38.657Z,100.00
2023-01-20T23:38:06.703Z,100.00
2023-01-20T23:40:34.325Z,100.00
2023-01-20T23:43:02.049Z,100.00
2023-01-20T23:45:29.611Z,100.00
2023-01-20T23:47:57.119Z,100.00
2023-01-20T23:50:25.971Z,100.00
2023-01-20T23:52:53.441Z,100.00
2023-01-20T23:55:20.982Z,100.00
2023-01-20T23:57:48.599Z,100.00
